Etusivu
METAR-TAF:

METAR-TAF

Lentoasemat :

Sotilaslentoasema

Shizuhama, Japani

Leveyspiiri: 34-49N, Pituuspiiri: 138-18E, korkeus merenpinnasta: 7 m

Tämänhetkinen sää

Tämä raportti tehtiin 3 tuntia ja 49 minuuttia sitten, kello 13.26 UTC
Tuuli 4 kn koillisesta, vaihdellen pohjoisen/koillisen ja idän välillä
Lämpötila 21°C
Kosteus 88%
Ilmanpaine 1017 hPa
Näkyvyys 10 km tai enemmän
Muutamia pilviä 1000 ft:n korkeudessa
Hajanaisia pilviä 3000 ft:n korkeudessa
Hajonneita pilviä 4000 ft:n korkeudessa

METAR: RJNY 211326Z 05004KT 020V080 9999 FEW010 SCT030 BKN040 21/19 Q1017 RMK 1CU010 3CU030 5SC040 A3005

Aika: 02:15 (17:15 UTC)


TAF: puuttuu

Säähavainnot ja -ennusteet yli 4000 lentoasemalta (METAR- ja TAF-raportit).

Käytössä olevat sääasemat on merkitty karttaan keltaisilla ja punaisilla pisteillä.

Aseta hiiri pisteen päälle nähdäksesi sääaseman nimen.

Klikkaa sitten nähdäksesi säähavainnot ja -ennusteet.

Kartan vaihtaminen: klikkaa mustalla rastilla varustettuja vihreitä pisteitä, niin voit zoomata sisään; viivalla varustettua vihreää pistettä, niin voit zoomata ulos tai vihreitä nuolia, niin pääset viereisille kartoille.


METAR-TAF: